createdAt,value
2019-06-15T00:01:36.188Z,15.60
2019-06-15T00:04:04.364Z,15.60
2019-06-15T00:06:32.948Z,15.60
2019-06-15T00:09:01.420Z,15.60
2019-06-15T00:11:29.797Z,15.60
2019-06-15T00:13:58.096Z,15.60
2019-06-15T00:16:26.109Z,15.60
2019-06-15T00:18:55.001Z,15.50
2019-06-15T00:21:23.563Z,15.50
2019-06-15T00:23:52.014Z,15.40
2019-06-15T00:26:20.310Z,15.40
2019-06-15T00:28:48.923Z,15.30
2019-06-15T00:31:17.371Z,15.20
2019-06-15T00:33:45.724Z,15.10
2019-06-15T00:36:14.369Z,14.90
2019-06-15T00:38:44.808Z,14.50
2019-06-15T00:41:13.441Z,14.30
2019-06-15T00:43:42.368Z,14.10
2019-06-15T00:46:10.836Z,13.90
2019-06-15T00:48:39.070Z,13.70
2019-06-15T00:51:07.385Z,13.50
2019-06-15T00:53:35.559Z,13.40
2019-06-15T00:56:04.872Z,13.30
2019-06-15T00:58:33.417Z,13.10
2019-06-15T01:01:01.599Z,13.10
2019-06-15T01:03:30.087Z,13.10
2019-06-15T01:05:58.801Z,13.10
2019-06-15T01:08:27.695Z,13.10
2019-06-15T01:10:55.989Z,13.10
2019-06-15T01:13:24.141Z,13.00
2019-06-15T01:15:52.244Z,13.00
2019-06-15T01:18:20.725Z,12.90
2019-06-15T01:20:49.175Z,12.80
2019-06-15T01:23:17.363Z,12.80
2019-06-15T01:25:45.427Z,12.80
2019-06-15T01:28:15.027Z,12.80
2019-06-15T01:30:43.461Z,12.90
2019-06-15T01:33:11.347Z,12.80
2019-06-15T01:35:39.916Z,12.80
2019-06-15T01:38:08.579Z,12.70
2019-06-15T01:40:36.900Z,12.60
2019-06-15T01:43:05.399Z,12.60
2019-06-15T01:45:33.735Z,12.60
2019-06-15T01:48:01.943Z,12.60
2019-06-15T01:50:32.006Z,12.60
2019-06-15T01:53:00.377Z,12.70
2019-06-15T01:55:29.440Z,12.70
2019-06-15T01:57:57.362Z,12.70
2019-06-15T02:00:30.310Z,12.70
2019-06-15T02:02:58.606Z,12.70
2019-06-15T02:05:26.807Z,12.60
2019-06-15T02:07:55.081Z,12.60
2019-06-15T02:10:28.528Z,12.60
2019-06-15T02:12:56.822Z,12.60
2019-06-15T02:15:25.206Z,12.60
2019-06-15T02:17:53.794Z,12.60
2019-06-15T02:20:21.967Z,12.50
2019-06-15T02:22:50.396Z,12.50
2019-06-15T02:25:35.367Z,12.60
2019-06-15T02:27:54.628Z,12.60
2019-06-15T02:30:26.620Z,12.60
2019-06-15T02:32:55.632Z,12.60
2019-06-15T02:35:23.984Z,12.50
2019-06-15T02:37:52.895Z,12.50
2019-06-15T02:40:21.958Z,12.50
2019-06-15T02:42:50.062Z,12.50
2019-06-15T02:45:18.290Z,12.50
2019-06-15T02:47:46.458Z,12.50
2019-06-15T02:50:15.441Z,12.50
2019-06-15T02:52:44.244Z,12.50
2019-06-15T02:55:13.486Z,12.50
2019-06-15T02:57:41.427Z,12.50
2019-06-15T03:00:11.534Z,12.50
2019-06-15T03:02:39.536Z,12.60
2019-06-15T03:05:08.057Z,12.60
2019-06-15T03:07:36.389Z,12.60
2019-06-15T03:10:04.771Z,12.60
2019-06-15T03:12:33.261Z,12.60
2019-06-15T03:15:02.001Z,12.60
2019-06-15T03:17:30.413Z,12.60
2019-06-15T03:19:58.762Z,12.60
2019-06-15T03:22:27.463Z,12.60
2019-06-15T03:24:55.779Z,12.60
2019-06-15T03:27:23.819Z,12.60
2019-06-15T03:29:51.866Z,12.60
2019-06-15T03:32:19.821Z,12.60
2019-06-15T03:34:48.173Z,12.60
2019-06-15T03:37:16.306Z,12.50
2019-06-15T03:39:44.583Z,12.60
2019-06-15T03:42:13.238Z,12.50
2019-06-15T03:44:41.554Z,12.50
2019-06-15T03:47:09.700Z,12.50
2019-06-15T03:49:38.020Z,12.60
2019-06-15T03:52:06.405Z,12.60
2019-06-15T03:54:34.341Z,12.60
2019-06-15T03:57:02.231Z,12.70
2019-06-15T03:59:30.147Z,12.70
2019-06-15T04:01:58.101Z,12.70
2019-06-15T04:04:26.077Z,12.80
2019-06-15T04:06:54.363Z,12.80
2019-06-15T04:09:22.604Z,12.80
2019-06-15T04:11:50.669Z,12.90
2019-06-15T04:14:18.946Z,12.90
2019-06-15T04:16:46.857Z,12.90
2019-06-15T04:19:16.040Z,12.90
2019-06-15T04:21:43.954Z,12.90
2019-06-15T04:24:12.113Z,13.00
2019-06-15T04:26:39.986Z,13.00
2019-06-15T04:29:08.643Z,13.10
2019-06-15T04:31:39.883Z,13.00
2019-06-15T04:34:06.817Z,13.10
2019-06-15T04:36:34.866Z,13.20
2019-06-15T04:39:05.141Z,13.20
2019-06-15T04:41:33.471Z,13.20
2019-06-15T04:44:01.518Z,13.20
2019-06-15T04:46:32.001Z,13.20
2019-06-15T04:48:59.349Z,13.20
2019-06-15T04:51:27.489Z,13.30
2019-06-15T04:53:55.547Z,13.30
2019-06-15T04:56:24.961Z,13.30
2019-06-15T04:58:53.972Z,13.30
2019-06-15T05:01:22.125Z,13.30
2019-06-15T05:03:50.897Z,13.30
2019-06-15T05:09:44.367Z,13.30
2019-06-15T05:12:12.578Z,13.30
2019-06-15T05:14:40.620Z,13.30
2019-06-15T05:17:09.119Z,13.40
2019-06-15T05:19:37.059Z,13.40
2019-06-15T05:22:05.595Z,13.40
2019-06-15T05:24:34.070Z,13.40
2019-06-15T05:27:06.356Z,13.40
2019-06-15T05:29:33.768Z,13.40
2019-06-15T05:32:02.390Z,13.40
2019-06-15T05:34:30.374Z,13.40
2019-06-15T05:36:58.684Z,13.50
2019-06-15T05:39:27.704Z,13.40
2019-06-15T05:42:00.859Z,13.50
2019-06-15T05:44:30.685Z,13.60
2019-06-15T05:46:59.024Z,13.70
2019-06-15T05:49:29.471Z,13.70
2019-06-15T05:51:59.334Z,13.70
2019-06-15T05:54:29.900Z,13.70
2019-06-15T05:56:58.923Z,13.70
2019-06-15T05:59:28.087Z,13.80
2019-06-15T06:01:59.530Z,13.70
2019-06-15T06:04:31.808Z,13.70
2019-06-15T06:07:04.227Z,13.80
2019-06-15T06:09:32.404Z,13.90
2019-06-15T06:12:00.581Z,14.00
2019-06-15T06:14:31.488Z,14.10
2019-06-15T06:16:59.656Z,14.20
2019-06-15T06:19:28.044Z,14.40
2019-06-15T06:21:58.350Z,14.40
2019-06-15T06:24:29.714Z,14.40
2019-06-15T06:26:58.204Z,14.40
2019-06-15T06:29:27.684Z,14.40
2019-06-15T06:31:57.597Z,14.50
2019-06-15T06:34:27.557Z,14.50
2019-06-15T06:37:03.762Z,14.50
2019-06-15T06:39:36.947Z,14.50
2019-06-15T06:42:06.445Z,14.50
2019-06-15T06:44:34.909Z,14.40
2019-06-15T06:47:04.644Z,14.50
2019-06-15T06:49:32.846Z,14.50
2019-06-15T06:52:01.285Z,14.60
2019-06-15T06:54:30.868Z,14.70
2019-06-15T06:57:01.881Z,14.80
2019-06-15T06:59:30.206Z,14.80
2019-06-15T07:01:59.225Z,14.80
2019-06-15T07:08:42.350Z,14.70
2019-06-15T07:11:10.418Z,14.60
2019-06-15T07:13:39.101Z,14.70
2019-06-15T07:16:07.518Z,14.70
2019-06-15T07:18:35.487Z,14.70
2019-06-15T07:21:04.083Z,14.70
2019-06-15T07:23:32.476Z,14.60
2019-06-15T07:26:00.486Z,14.60
2019-06-15T07:28:28.825Z,14.60
2019-06-15T07:30:56.916Z,14.50
2019-06-15T07:33:25.097Z,14.60
2019-06-15T07:35:53.034Z,14.50
2019-06-15T07:38:21.020Z,14.60
2019-06-15T07:40:50.076Z,14.60
2019-06-15T07:43:18.359Z,14.70
2019-06-15T07:45:46.868Z,14.70
2019-06-15T07:48:15.225Z,14.70
2019-06-15T07:50:43.514Z,14.50
2019-06-15T07:53:11.438Z,14.50
2019-06-15T07:55:39.302Z,14.50
2019-06-15T07:58:23.332Z,14.40
2019-06-15T08:00:38.246Z,14.50
2019-06-15T08:03:07.026Z,14.50
2019-06-15T08:05:34.965Z,14.60
2019-06-15T08:08:02.878Z,14.60
2019-06-15T08:10:30.795Z,14.60
2019-06-15T08:12:58.842Z,14.60
2019-06-15T08:15:26.940Z,14.70
2019-06-15T08:17:55.431Z,14.60
2019-06-15T08:20:28.309Z,14.60
2019-06-15T08:22:56.486Z,14.60
2019-06-15T08:25:24.788Z,14.60
2019-06-15T08:27:52.858Z,14.70
2019-06-15T08:30:28.096Z,14.70
2019-06-15T08:32:55.969Z,14.80
2019-06-15T08:35:24.322Z,14.90
2019-06-15T08:37:52.494Z,15.00
2019-06-15T08:40:22.541Z,15.10
2019-06-15T08:42:50.893Z,15.30
2019-06-15T08:45:19.133Z,15.40
2019-06-15T08:47:50.239Z,15.40
2019-06-15T08:50:19.139Z,15.40
2019-06-15T08:52:47.148Z,15.40
2019-06-15T08:55:15.215Z,15.30
2019-06-15T08:57:44.789Z,15.30
2019-06-15T09:00:12.864Z,15.30
2019-06-15T09:02:40.901Z,15.30
2019-06-15T09:05:09.666Z,15.40
2019-06-15T09:07:37.749Z,15.50
2019-06-15T09:10:06.889Z,15.60
2019-06-15T09:12:35.193Z,15.70
2019-06-15T09:15:04.286Z,15.70
2019-06-15T09:17:32.210Z,15.60
2019-06-15T09:20:00.405Z,15.50
2019-06-15T09:22:28.281Z,15.40
2019-06-15T09:24:57.902Z,15.40
2019-06-15T09:27:25.835Z,15.40
2019-06-15T09:29:53.781Z,15.40
2019-06-15T09:32:22.582Z,15.60
2019-06-15T09:34:50.630Z,15.60
2019-06-15T09:37:18.681Z,15.70
2019-06-15T09:39:47.376Z,15.70
2019-06-15T09:42:15.362Z,15.80
2019-06-15T09:44:43.748Z,16.00
2019-06-15T09:47:11.849Z,16.10
2019-06-15T09:49:39.696Z,16.30
2019-06-15T09:52:07.572Z,16.60
2019-06-15T09:54:35.554Z,17.10
2019-06-15T09:57:03.738Z,17.20
2019-06-15T09:59:31.675Z,17.20
2019-06-15T10:02:00.312Z,17.00
2019-06-15T10:04:28.481Z,17.00
2019-06-15T10:06:56.457Z,17.00
2019-06-15T10:09:24.494Z,17.40
2019-06-15T10:11:52.447Z,17.70
2019-06-15T10:14:20.591Z,17.90
2019-06-15T10:16:48.523Z,18.10
2019-06-15T10:19:16.787Z,18.30
2019-06-15T10:21:44.775Z,18.40
2019-06-15T10:24:13.058Z,18.60
2019-06-15T10:26:41.132Z,18.90
2019-06-15T10:29:09.347Z,19.20
2019-06-15T10:31:37.838Z,19.50
2019-06-15T10:34:06.075Z,19.80
2019-06-15T10:36:34.145Z,20.10
2019-06-15T10:39:03.261Z,20.60
2019-06-15T10:41:31.640Z,21.30
2019-06-15T10:43:59.889Z,21.80
2019-06-15T10:46:27.861Z,21.90
2019-06-15T10:48:56.131Z,21.90
2019-06-15T10:51:24.778Z,21.70
2019-06-15T10:53:53.095Z,22.00
2019-06-15T10:56:21.306Z,22.70
2019-06-15T10:58:49.828Z,23.30
2019-06-15T11:01:18.342Z,23.70
2019-06-15T11:03:46.854Z,24.00
2019-06-15T11:06:16.014Z,24.60
2019-06-15T11:08:44.306Z,24.70
2019-06-15T11:11:21.652Z,24.60
2019-06-15T11:13:49.359Z,24.80
2019-06-15T11:16:18.484Z,24.30
2019-06-15T11:18:48.032Z,23.50
2019-06-15T11:21:16.650Z,23.60
2019-06-15T11:23:44.992Z,24.40
2019-06-15T11:26:13.512Z,25.10
2019-06-15T11:28:41.894Z,25.20
2019-06-15T11:31:10.344Z,25.10
2019-06-15T11:33:38.716Z,25.10
2019-06-15T11:36:07.058Z,25.00
2019-06-15T11:38:35.446Z,25.70
2019-06-15T11:41:04.357Z,25.70
2019-06-15T11:43:33.159Z,25.90
2019-06-15T11:46:01.448Z,26.00
2019-06-15T11:48:29.930Z,25.50
2019-06-15T11:50:57.914Z,25.20
2019-06-15T11:53:26.538Z,25.00
2019-06-15T11:55:55.157Z,24.40
2019-06-15T11:58:23.771Z,24.90
2019-06-15T12:00:52.000Z,24.80
2019-06-15T12:03:20.238Z,24.90
2019-06-15T12:05:48.882Z,25.40
2019-06-15T12:08:17.037Z,26.40
2019-06-15T12:10:45.499Z,27.70
2019-06-15T12:13:13.515Z,27.50
2019-06-15T12:15:42.274Z,27.20
2019-06-15T12:18:10.551Z,27.20
2019-06-15T12:20:39.174Z,27.40
2019-06-15T12:23:07.591Z,26.30
2019-06-15T12:25:36.038Z,25.60
2019-06-15T12:28:04.273Z,26.20
2019-06-15T12:30:48.858Z,26.20
2019-06-15T12:33:12.128Z,25.50
2019-06-15T12:35:40.916Z,25.40
2019-06-15T12:38:09.403Z,25.60
2019-06-15T12:40:38.195Z,26.20
2019-06-15T12:43:06.631Z,27.00
2019-06-15T12:45:34.702Z,28.10
2019-06-15T12:48:02.795Z,28.80
2019-06-15T12:50:30.699Z,29.60
2019-06-15T12:52:59.266Z,28.80
2019-06-15T12:55:27.111Z,27.80
2019-06-15T12:57:55.417Z,26.70
2019-06-15T13:00:29.313Z,25.70
2019-06-15T13:02:59.340Z,24.80
2019-06-15T13:05:27.464Z,24.50
2019-06-15T13:07:55.634Z,23.90
2019-06-15T13:10:24.345Z,24.20
2019-06-15T13:12:52.861Z,24.40
2019-06-15T13:15:22.640Z,25.30
2019-06-15T13:17:51.145Z,25.40
2019-06-15T13:20:21.044Z,25.10
2019-06-15T13:22:54.316Z,25.00
2019-06-15T13:25:23.491Z,25.00
2019-06-15T13:27:53.125Z,24.50
2019-06-15T13:30:22.512Z,25.10
2019-06-15T13:32:51.337Z,25.00
2019-06-15T13:35:20.471Z,24.50
2019-06-15T13:37:48.948Z,23.90
2019-06-15T13:40:17.313Z,23.70
2019-06-15T13:42:47.775Z,23.00
2019-06-15T13:45:17.619Z,22.70
2019-06-15T13:50:31.250Z,22.00
2019-06-15T13:52:58.902Z,21.60
2019-06-15T13:55:26.449Z,21.20
2019-06-15T13:57:54.067Z,20.80
2019-06-15T14:00:22.242Z,20.50
2019-06-15T14:05:32.867Z,19.70
2019-06-15T14:08:00.687Z,19.70
2019-06-15T14:10:28.334Z,19.50
2019-06-15T14:12:56.297Z,19.50
2019-06-15T14:15:24.164Z,19.40
2019-06-15T14:17:51.938Z,19.40
2019-06-15T14:20:20.488Z,19.40
2019-06-15T14:22:48.115Z,19.50
2019-06-15T14:25:16.198Z,19.50
2019-06-15T14:27:44.166Z,19.20
2019-06-15T14:30:11.916Z,18.40
2019-06-15T14:32:39.926Z,17.00
2019-06-15T14:35:08.139Z,16.40
2019-06-15T14:37:36.092Z,16.10
2019-06-15T14:40:04.899Z,15.70
2019-06-15T14:42:32.549Z,15.50
2019-06-15T14:45:00.253Z,15.30
2019-06-15T14:47:28.818Z,15.20
2019-06-15T14:49:56.651Z,15.00
2019-06-15T14:52:24.327Z,15.00
2019-06-15T14:57:41.171Z,15.00
2019-06-15T15:00:16.808Z,15.00
2019-06-15T15:02:46.872Z,15.20
2019-06-15T15:05:17.649Z,15.30
2019-06-15T15:07:46.955Z,15.50
2019-06-15T15:10:16.352Z,16.40
2019-06-15T15:12:46.098Z,17.60
2019-06-15T15:15:13.830Z,18.80
2019-06-15T15:17:42.618Z,19.30
2019-06-15T15:20:10.712Z,19.60
2019-06-15T15:22:38.975Z,20.00
2019-06-15T15:25:07.916Z,19.90
2019-06-15T15:27:37.401Z,19.30
2019-06-15T15:30:06.261Z,19.10
2019-06-15T15:32:37.100Z,19.10
2019-06-15T15:35:06.575Z,19.30
2019-06-15T15:37:36.936Z,19.60
2019-06-15T15:40:11.524Z,19.70
2019-06-15T15:42:39.546Z,20.10
2019-06-15T15:45:08.782Z,20.50
2019-06-15T15:47:37.577Z,20.90
2019-06-15T15:50:06.397Z,21.50
2019-06-15T15:52:37.171Z,21.40
2019-06-15T15:55:06.505Z,21.70
2019-06-15T15:57:36.338Z,21.80
2019-06-15T16:00:07.340Z,22.00
2019-06-15T16:02:52.066Z,22.30
2019-06-15T16:05:10.337Z,22.60
2019-06-15T16:07:42.447Z,22.50
2019-06-15T16:10:10.294Z,22.60
2019-06-15T16:12:38.037Z,22.20
2019-06-15T16:15:07.298Z,21.90
2019-06-15T16:17:37.288Z,22.50
2019-06-15T16:20:06.764Z,22.80
2019-06-15T16:22:36.856Z,22.80
2019-06-15T16:25:03.868Z,22.80
2019-06-15T16:27:31.458Z,22.90
2019-06-15T16:29:59.088Z,23.10
2019-06-15T16:32:26.674Z,23.00
2019-06-15T16:34:54.307Z,23.50
2019-06-15T16:37:21.877Z,23.80
2019-06-15T16:39:49.585Z,22.90
2019-06-15T16:42:17.489Z,21.70
2019-06-15T16:44:46.902Z,20.80
2019-06-15T16:47:16.595Z,20.20
2019-06-15T16:49:46.376Z,20.60
2019-06-15T16:52:16.287Z,21.70
2019-06-15T16:54:46.814Z,22.60
2019-06-15T16:57:15.959Z,23.20
2019-06-15T16:59:42.925Z,23.30
2019-06-15T17:02:10.549Z,23.70
2019-06-15T17:04:38.132Z,23.60
2019-06-15T17:07:07.142Z,24.00
2019-06-15T17:09:36.265Z,24.20
2019-06-15T17:12:12.890Z,24.20
2019-06-15T17:14:41.335Z,23.50
2019-06-15T17:17:09.928Z,22.70
2019-06-15T17:19:38.108Z,22.30
2019-06-15T17:22:20.430Z,22.10
2019-06-15T17:24:45.889Z,21.80
2019-06-15T17:27:37.519Z,21.40
2019-06-15T17:30:17.056Z,20.80
2019-06-15T17:32:48.545Z,20.20
2019-06-15T17:35:20.627Z,19.70
2019-06-15T17:37:56.395Z,19.50
2019-06-15T17:51:07.143Z,19.10
2019-06-15T17:54:24.024Z,19.10
2019-06-15T17:57:15.870Z,19.00
2019-06-15T18:00:12.626Z,18.80
2019-06-15T18:03:02.078Z,18.70
2019-06-15T18:06:09.634Z,18.60
2019-06-15T18:08:58.474Z,18.80
2019-06-15T18:12:02.471Z,19.00
2019-06-15T18:14:33.032Z,19.10
2019-06-15T18:19:42.059Z,18.50
2019-06-15T18:22:09.940Z,18.30
2019-06-15T18:24:37.587Z,18.10
2019-06-15T18:27:07.095Z,17.90
2019-06-15T18:29:36.699Z,17.80
2019-06-15T18:32:07.879Z,17.70
2019-06-15T18:34:36.842Z,17.60
2019-06-15T18:37:04.687Z,17.60
2019-06-15T18:39:32.983Z,17.60
2019-06-15T18:42:00.759Z,17.60
2019-06-15T18:44:28.558Z,17.60
2019-06-15T18:46:56.540Z,17.60
2019-06-15T18:49:26.633Z,17.60
2019-06-15T18:51:56.573Z,17.60
2019-06-15T18:54:23.535Z,17.50
2019-06-15T18:56:51.260Z,17.40
2019-06-15T18:59:19.357Z,17.40
2019-06-15T19:01:47.324Z,17.30
2019-06-15T19:04:24.591Z,17.30
2019-06-15T19:06:46.744Z,17.30
2019-06-15T19:09:16.274Z,17.30
2019-06-15T19:11:44.103Z,17.30
2019-06-15T19:14:11.875Z,17.30
2019-06-15T19:16:39.907Z,17.40
2019-06-15T19:19:09.240Z,17.40
2019-06-15T19:21:37.155Z,17.40
2019-06-15T19:24:07.086Z,17.40
2019-06-15T19:26:37.455Z,17.40
2019-06-15T19:29:06.371Z,17.40
2019-06-15T19:31:33.618Z,17.30
2019-06-15T19:34:01.837Z,17.30
2019-06-15T19:36:29.500Z,17.40
2019-06-15T19:38:57.315Z,17.30
2019-06-15T19:41:26.651Z,17.30
2019-06-15T19:43:56.954Z,17.10
2019-06-15T19:46:26.067Z,16.80
2019-06-15T19:48:55.940Z,16.70
2019-06-15T19:51:23.033Z,16.50
2019-06-15T19:53:50.628Z,16.40
2019-06-15T19:56:18.205Z,16.40
2019-06-15T19:58:46.223Z,16.40
2019-06-15T20:01:13.816Z,16.40
2019-06-15T20:03:41.468Z,16.50
2019-06-15T20:06:09.035Z,16.50
2019-06-15T20:08:36.835Z,16.50
2019-06-15T20:11:06.974Z,16.50
2019-06-15T20:13:36.863Z,16.50
2019-06-15T20:16:05.272Z,16.50
2019-06-15T20:18:32.981Z,16.40
2019-06-15T20:21:00.602Z,16.40
2019-06-15T20:23:28.861Z,16.40
2019-06-15T20:25:58.514Z,16.30
2019-06-15T20:28:27.286Z,16.30
2019-06-15T20:30:57.098Z,16.30
2019-06-15T20:33:26.381Z,16.40
2019-06-15T20:35:54.270Z,16.30
2019-06-15T20:38:21.830Z,16.40
2019-06-15T20:40:49.423Z,16.40
2019-06-15T20:43:18.954Z,16.50
2019-06-15T20:45:47.131Z,16.40
2019-06-15T20:48:14.720Z,16.40
2019-06-15T20:50:42.571Z,16.40
2019-06-15T20:53:10.483Z,16.40
2019-06-15T20:55:38.058Z,16.40
2019-06-15T21:01:03.404Z,16.20
2019-06-15T21:03:31.039Z,16.10
2019-06-15T21:05:58.669Z,16.30
2019-06-15T21:08:26.749Z,16.20
2019-06-15T21:10:56.432Z,16.10
2019-06-15T21:13:26.226Z,16.00
2019-06-15T21:15:53.536Z,15.90
2019-06-15T21:18:21.518Z,15.70
2019-06-15T21:20:49.164Z,15.60
2019-06-15T21:23:16.896Z,15.30
2019-06-15T21:25:46.777Z,15.10
2019-06-15T21:28:16.683Z,14.90
2019-06-15T21:30:43.670Z,14.80
2019-06-15T21:33:11.389Z,14.50
2019-06-15T21:35:49.028Z,14.30
2019-06-15T21:38:09.155Z,14.10
2019-06-15T21:40:37.029Z,14.00
2019-06-15T21:43:06.802Z,13.80
2019-06-15T21:45:36.268Z,13.80
2019-06-15T21:48:06.538Z,13.80
2019-06-15T21:50:33.416Z,13.70
2019-06-15T21:53:01.383Z,13.70
2019-06-15T21:55:29.050Z,13.60
2019-06-15T21:57:56.706Z,13.60
2019-06-15T22:00:39.781Z,13.60
2019-06-15T22:03:07.476Z,13.50
2019-06-15T22:05:36.842Z,13.40
2019-06-15T22:08:21.633Z,13.40
2019-06-15T22:10:58.000Z,13.30
2019-06-15T22:13:33.464Z,13.20
2019-06-15T22:16:09.114Z,13.20
2019-06-15T22:18:47.200Z,13.30
2019-06-15T22:21:21.113Z,13.30
2019-06-15T22:23:55.937Z,13.20
2019-06-15T22:26:31.363Z,13.20
2019-06-15T22:29:16.587Z,13.20
2019-06-15T22:32:00.704Z,13.20
2019-06-15T22:34:36.445Z,13.20
2019-06-15T22:37:13.082Z,13.10
2019-06-15T22:39:58.104Z,13.20
2019-06-15T22:42:32.229Z,13.30
2019-06-15T22:45:10.906Z,13.30
2019-06-15T22:47:46.871Z,13.40
2019-06-15T22:50:21.039Z,13.40
2019-06-15T22:52:56.480Z,13.30
2019-06-15T22:55:33.026Z,13.20
2019-06-15T22:58:07.122Z,13.10
2019-06-15T23:00:41.378Z,13.00
2019-06-15T23:03:28.736Z,12.90
2019-06-15T23:06:03.157Z,13.00
2019-06-15T23:08:38.742Z,13.00
2019-06-15T23:11:17.435Z,13.10
2019-06-15T23:13:57.185Z,13.20
2019-06-15T23:16:36.655Z,13.50
2019-06-15T23:19:10.824Z,13.60
2019-06-15T23:21:46.314Z,13.60
2019-06-15T23:24:21.500Z,13.60
2019-06-15T23:26:57.078Z,13.80
2019-06-15T23:29:40.832Z,13.90
2019-06-15T23:32:20.779Z,13.80
2019-06-15T23:34:56.517Z,13.80
2019-06-15T23:37:30.820Z,13.80
2019-06-15T23:40:26.965Z,13.70
2019-06-15T23:43:02.425Z,13.70
2019-06-15T23:45:40.020Z,13.40
2019-06-15T23:48:16.100Z,13.30
2019-06-15T23:50:52.333Z,13.10
2019-06-15T23:53:27.874Z,13.00
2019-06-15T23:56:07.274Z,13.10
2019-06-15T23:58:42.765Z,13.00
